Time;durP1;ratioP1;P1;durP2;ratioP2;P2;SDS_P1;SDS_P2;PMS_P1;PMS_P2;Temp;Humidity;BMP_temperature;BMP_pressure;BME280_temperature;BME280_humidity;BME280_pressure;Samples;Min_cycle;Max_cycle;Signal;HPM_P1;HPM_P2
2022/01/25 00:26:33;;;;;;;28.77;12.75;;;;;;;2.56;89.53;102158.41;1625092;88;21283;-74
2022/01/25 00:29:05;;;;;;;24.98;10.80;;;;;;;2.54;89.55;102155.83;1625292;87;21066;-74
2022/01/25 00:31:18;;;;;;;33.92;14.43;;;;;;;2.55;89.57;102164.59;1625271;87;22214;-74
2022/01/25 00:33:47;;;;;;;56.30;31.87;;;;;;;2.56;89.60;102155.77;1630669;88;21507;-74
2022/01/25 00:36:16;;;;;;;40.65;15.85;;;;;;;2.54;89.57;102151.88;1631127;88;21559;-74
2022/01/25 00:38:43;;;;;;;32.08;11.83;;;;;;;2.53;89.57;102153.30;1634748;87;21308;-74
2022/01/25 00:41:09;;;;;;;24.23;10.85;;;;;;;2.51;89.58;102151.58;1625789;88;21487;-74
2022/01/25 00:43:35;;;;;;;26.10;10.85;;;;;;;2.50;89.57;102141.11;1626012;88;21759;-74
2022/01/25 00:46:06;;;;;;;21.57;9.60;;;;;;;2.49;89.57;102141.60;1625920;88;21069;-74
2022/01/25 00:53:59;;;;;;;24.98;9.93;;;;;;;2.51;89.58;102136.24;1625425;88;21034;-74
2022/01/25 00:56:20;;;;;;;;;;;;;;;2.51;89.58;102134.92;1628183;87;21082;-74
2022/01/25 00:58:46;;;;;;;18.00;8.63;;;;;;;2.55;89.62;102136.94;1625961;88;20421;-74
2022/01/25 01:01:12;;;;;;;24.50;10.95;;;;;;;2.53;89.63;102135.23;1625886;88;21045;-74
2022/01/25 01:03:38;;;;;;;23.67;10.45;;;;;;;2.53;89.63;102131.28;1625882;88;22116;-74
2022/01/25 01:06:06;;;;;;;18.80;9.53;;;;;;;2.54;89.65;102134.77;1625854;88;21101;-74
2022/01/25 01:08:32;;;;;;;17.73;8.73;;;;;;;2.55;89.67;102134.31;1625656;88;21041;-74
2022/01/25 01:11:01;;;;;;;16.07;8.75;;;;;;;2.55;89.68;102130.36;1625932;88;21845;-74
2022/01/25 01:13:56;;;;;;;20.20;10.13;;;;;;;2.54;89.69;102128.19;1625798;86;21014;-74
2022/01/25 01:30:06;;;;;;;31.65;13.65;;;;;;;2.57;89.73;102121.45;1625805;86;21171;-73
2022/01/25 01:38:01;;;;;;;16.97;8.35;;;;;;;2.60;89.76;102107.30;1625756;88;21065;-74
2022/01/25 01:47:51;;;;;;;130.07;47.90;;;;;;;2.62;89.85;102099.70;1573414;91;21063;-73
2022/01/25 01:50:29;;;;;;;75.50;26.77;;;;;;;2.60;89.86;102097.62;1625882;88;21049;-74
2022/01/25 01:52:55;;;;;;;29.75;11.28;;;;;;;2.58;89.84;102095.97;1625766;86;21137;-74
2022/01/25 01:55:21;;;;;;;15.65;8.80;;;;;;;2.57;89.86;102095.11;1625787;88;21370;-73
2022/01/25 01:57:49;;;;;;;18.90;8.88;;;;;;;2.57;89.86;102089.02;1625791;88;21102;-73
2022/01/25 02:00:20;;;;;;;20.80;8.95;;;;;;;2.58;89.86;102095.97;1626046;88;21037;-74
2022/01/25 02:02:46;;;;;;;22.05;8.43;;;;;;;2.59;89.85;102089.78;1625830;88;21046;-74
2022/01/25 02:05:12;;;;;;;12.07;6.67;;;;;;;2.58;89.86;102089.39;1625945;88;20887;-74
2022/01/25 02:07:38;;;;;;;13.15;7.60;;;;;;;2.59;89.86;102080.56;1625824;88;21030;-74
2022/01/25 02:10:04;;;;;;;11.55;6.55;;;;;;;2.60;89.85;102075.70;1625927;87;20987;-74
2022/01/25 02:12:30;;;;;;;12.00;7.90;;;;;;;2.61;89.88;102072.97;1626003;88;21084;-74
2022/01/25 02:14:56;;;;;;;12.05;8.00;;;;;;;2.61;89.89;102076.06;1625961;88;21514;-74
2022/01/25 02:22:59;;;;;;;10.03;6.58;;;;;;;2.60;89.91;102080.96;1625943;88;21590;-74
2022/01/25 02:25:25;;;;;;;13.22;8.05;;;;;;;2.59;89.91;102079.25;1625873;88;21553;-73
2022/01/25 02:27:51;;;;;;;12.88;8.85;;;;;;;2.58;89.94;102080.17;1625661;88;21535;-74
2022/01/25 02:30:17;;;;;;;16.27;8.55;;;;;;;2.57;89.92;102081.13;1625848;88;21121;-74
2022/01/25 02:32:43;;;;;;;9.20;6.50;;;;;;;2.59;89.91;102081.88;1625862;88;21893;-74
2022/01/25 02:35:10;;;;;;;12.50;7.25;;;;;;;2.59;89.92;102089.78;1625817;88;21018;-74
2022/01/25 02:37:37;;;;;;;17.52;8.83;;;;;;;2.59;89.92;102084.52;1625892;88;21086;-74
2022/01/25 02:40:06;;;;;;;17.50;7.87;;;;;;;2.57;89.90;102078.48;1625967;88;21502;-74
2022/01/25 02:42:32;;;;;;;17.73;8.25;;;;;;;2.57;89.90;102075.86;1626003;88;21038;-73
2022/01/25 02:44:58;;;;;;;12.05;7.45;;;;;;;2.57;89.92;102076.68;1626097;88;22165;-74
2022/01/25 02:50:08;;;;;;;15.58;9.05;;;;;;;2.57;89.94;102077.17;1626034;88;21034;-74
2022/01/25 02:52:34;;;;;;;14.05;8.93;;;;;;;2.57;89.96;102075.36;1628218;86;21022;-74
2022/01/25 02:55:00;;;;;;;14.43;7.92;;;;;;;2.56;89.96;102073.69;1632850;87;21453;-74
2022/01/25 02:57:26;;;;;;;13.85;9.03;;;;;;;2.53;89.96;102070.72;1632886;87;21199;-74
2022/01/25 02:59:52;;;;;;;15.43;9.33;;;;;;;2.53;89.96;102067.72;1632925;87;21519;-74
2022/01/25 03:02:18;;;;;;;10.85;6.28;;;;;;;2.50;89.96;102065.61;1632758;87;21096;-74
2022/01/25 03:04:44;;;;;;;10.30;7.12;;;;;;;2.48;89.95;102064.84;1646413;86;21023;-74
2022/01/25 03:07:10;;;;;;;14.73;8.48;;;;;;;2.44;89.93;102059.34;1667251;86;21097;-74
2022/01/25 03:09:37;;;;;;;10.38;7.33;;;;;;;2.44;89.93;102050.13;1667392;86;21077;-74
2022/01/25 03:12:06;;;;;;;10.50;7.90;;;;;;;2.44;89.94;102039.59;1667432;86;21019;-74
2022/01/25 03:14:35;;;;;;;12.28;6.62;;;;;;;2.44;89.94;102039.59;1667612;85;21020;-74
2022/01/25 03:22:34;;;;;;;13.28;8.23;;;;;;;2.43;89.97;102037.89;1669546;86;21157;-74
2022/01/25 03:24:44;;;;;;;14.20;8.25;;;;;;;2.42;89.99;102038.84;1666706;85;21054;-74
2022/01/25 03:27:10;;;;;;;16.85;11.28;;;;;;;2.42;90.00;102038.84;1669621;86;21015;-74
2022/01/25 03:29:36;;;;;;;19.75;10.72;;;;;;;2.39;90.01;102040.28;1669362;86;21022;-74
2022/01/25 03:32:04;;;;;;;15.88;9.80;;;;;;;2.37;90.00;102037.34;1640868;87;21053;-74
2022/01/25 03:34:30;;;;;;;22.65;11.83;;;;;;;2.35;90.00;102037.91;1667242;85;21701;-74
2022/01/25 03:36:56;;;;;;;13.40;7.08;;;;;;;2.33;90.00;102035.80;1667202;84;21015;-74
2022/01/25 03:39:22;;;;;;;10.13;6.42;;;;;;;2.31;90.02;102030.63;1667557;86;21034;-73
2022/01/25 03:41:48;;;;;;;9.85;6.30;;;;;;;2.30;90.00;102030.23;1667310;86;21118;-74
2022/01/25 03:44:17;;;;;;;7.80;5.78;;;;;;;2.29;90.01;102032.47;1667416;86;21070;-74
2022/01/25 03:46:59;;;;;;;8.68;5.65;;;;;;;2.27;89.99;102036.97;1667376;84;21206;-74
2022/01/25 03:51:54;;;;;;;8.83;5.92;;;;;;;2.26;90.00;102027.81;1667044;86;21075;-74
2022/01/25 03:54:20;;;;;;;12.90;7.42;;;;;;;2.27;90.00;102025.59;1668041;85;21067;-75
2022/01/25 03:56:46;;;;;;;15.70;9.00;;;;;;;2.24;90.01;102034.49;1641406;86;21036;-74
2022/01/25 03:59:13;;;;;;;22.20;11.85;;;;;;;2.22;90.00;102043.37;1704640;84;21143;-75
2022/01/25 04:01:38;;;;;;;13.25;7.95;;;;;;;2.21;90.01;102045.64;1704731;84;21071;-76
2022/01/25 04:04:11;;;;;;;21.65;15.40;;;;;;;2.19;90.03;102044.38;1704784;84;21066;-75
2022/01/25 04:06:36;;;;;;;22.48;16.30;;;;;;;2.18;90.02;102045.30;1704368;83;21142;-75
2022/01/25 04:09:07;;;;;;;47.40;16.67;;;;;;;2.15;90.00;102041.52;1704676;84;21537;-75
2022/01/25 04:11:33;;;;;;;17.37;9.03;;;;;;;2.13;90.01;102028.91;1704636;84;21210;-75
2022/01/25 04:13:59;;;;;;;10.88;6.40;;;;;;;2.12;90.00;102033.77;1704499;84;21517;-74
2022/01/25 04:16:31;;;;;;;11.45;7.03;;;;;;;2.13;90.00;102038.12;1674590;84;21591;-74
2022/01/25 04:19:04;;;;;;;16.40;8.38;;;;;;;2.12;89.98;102034.23;1703821;84;21032;-74
2022/01/25 04:26:41;;;;;;;30.70;11.38;;;;;;;2.14;89.99;102021.41;1704613;84;21035;-75
2022/01/25 04:29:07;;;;;;;33.38;12.43;;;;;;;2.13;89.96;102007.86;1704745;84;21027;-74
2022/01/25 04:31:35;;;;;;;12.82;7.00;;;;;;;2.12;89.97;102003.97;1704591;84;21121;-75
2022/01/25 04:34:26;;;;;;;9.33;6.55;;;;;;;2.13;89.97;102016.21;1704741;84;21043;-75
2022/01/25 04:50:15;;;;;;;17.40;10.08;;;;;;;2.09;90.02;102029.98;1704648;84;21122;-75
2022/01/25 04:52:54;;;;;;;16.70;10.25;;;;;;;2.09;90.03;102032.61;1703082;83;21545;-74
2022/01/25 04:55:29;;;;;;;14.47;8.03;;;;;;;2.08;90.03;102032.22;1695879;84;21083;-74
2022/01/25 04:57:58;;;;;;;22.70;10.82;;;;;;;2.09;90.02;102032.61;1697896;84;21907;-74
2022/01/25 05:00:20;;;;;;;13.80;8.65;;;;;;;2.09;90.03;102027.81;1697099;84;21047;-74
2022/01/25 05:05:16;;;;;;;10.78;6.90;;;;;;;2.10;90.02;102029.06;1699021;83;20948;-74
2022/01/25 05:10:16;;;;;;;15.28;8.65;;;;;;;2.15;90.04;102028.36;1699366;84;21059;-75
2022/01/25 05:12:51;;;;;;;18.90;9.93;;;;;;;2.16;90.06;102022.63;1674467;84;21032;-75
2022/01/25 05:15:38;;;;;;;21.00;10.70;;;;;;;2.14;90.05;102025.36;1660454;84;21094;-75
2022/01/25 05:23:18;;;;;;;27.77;14.25;;;;;;;2.15;90.08;102024.41;1660074;85;21064;-75
2022/01/25 05:25:44;;;;;;;18.95;10.53;;;;;;;2.15;90.07;102028.81;1653005;85;20930;-75
2022/01/25 05:28:10;;;;;;;15.20;8.90;;;;;;;2.14;90.05;102029.77;1659534;86;21200;-75
2022/01/25 05:30:36;;;;;;;15.45;8.80;;;;;;;2.12;90.04;102031.14;1660459;85;20951;-75
2022/01/25 05:33:02;;;;;;;20.72;10.48;;;;;;;2.13;90.06;102038.12;1660911;86;20983;-75
2022/01/25 05:35:29;;;;;;;14.93;8.70;;;;;;;2.11;90.06;102028.11;1661016;85;21011;-75
2022/01/25 05:37:55;;;;;;;20.82;9.08;;;;;;;2.12;90.06;102019.30;1677762;85;21088;-75
2022/01/25 05:40:39;;;;;;;15.18;9.00;;;;;;;2.14;90.05;102025.36;1660480;86;21194;-75
2022/01/25 05:43:55;;;;;;;20.55;10.98;;;;;;;2.14;90.04;102024.05;1658066;86;21481;-75
2022/01/25 05:45:21;;;;;;;22.95;12.45;;;;;;;2.13;90.04;102022.33;1657567;85;21025;-75
2022/01/25 05:47:45;;;;;;;19.10;10.65;;;;;;;2.15;90.05;102019.14;1660774;86;21083;-75
2022/01/25 05:50:13;;;;;;;24.25;12.80;;;;;;;2.16;90.08;102026.13;1661058;86;21044;-75
2022/01/25 05:52:40;;;;;;;23.50;12.90;;;;;;;2.18;90.09;102025.56;1660934;86;21283;-74
2022/01/25 05:55:07;;;;;;;30.82;15.65;;;;;;;2.16;90.08;102014.28;1665555;86;21104;-74
2022/01/25 05:57:33;;;;;;;33.78;16.20;;;;;;;2.15;90.10;102009.94;1666052;86;21087;-74
2022/01/25 06:00:00;;;;;;;19.35;11.22;;;;;;;2.14;90.10;102001.67;1665626;86;21052;-74
2022/01/25 06:02:29;;;;;;;23.87;11.45;;;;;;;2.11;90.09;101999.17;1665805;86;21091;-74
2022/01/25 06:04:54;;;;;;;26.17;14.10;;;;;;;2.07;90.10;101997.64;1665729;86;21048;-75
2022/01/25 06:07:20;;;;;;;27.67;15.00;;;;;;;2.05;90.07;102004.75;1665370;86;21080;-74
2022/01/25 06:09:48;;;;;;;69.82;36.98;;;;;;;2.05;90.09;102004.75;1664123;86;21089;-75
2022/01/25 06:12:14;;;;;;;31.07;16.25;;;;;;;2.06;90.07;102007.77;1665256;86;21568;-75
2022/01/25 06:14:40;;;;;;;35.78;17.98;;;;;;;2.05;90.09;102012.64;1665830;86;21057;-74
2022/01/25 06:17:06;;;;;;;27.90;16.10;;;;;;;2.07;90.09;102013.89;1665708;84;21127;-74
2022/01/25 06:19:32;;;;;;;52.65;18.90;;;;;;;2.07;90.08;102009.48;1665834;86;21074;-74
2022/01/25 06:21:58;;;;;;;35.70;15.95;;;;;;;2.08;90.07;102007.22;1666092;85;21038;-75
2022/01/25 06:24:24;;;;;;;68.42;21.68;;;;;;;2.07;90.08;102009.95;1668532;85;21542;-74
2022/01/25 06:26:50;;;;;;;62.13;28.95;;;;;;;2.07;90.09;102007.31;1664583;86;21515;-74
2022/01/25 06:29:18;;;;;;;43.60;20.17;;;;;;;2.07;90.09;102017.84;1677726;85;21771;-74
2022/01/25 06:31:47;;;;;;;35.60;17.80;;;;;;;2.07;90.08;102023.10;1682735;85;21059;-74
2022/01/25 06:34:15;;;;;;;43.15;17.87;;;;;;;2.09;90.11;102022.09;1664419;86;21047;-74
2022/01/25 06:36:41;;;;;;;37.03;16.60;;;;;;;2.06;90.12;102014.35;1664614;86;21063;-74
2022/01/25 06:39:07;;;;;;;31.95;15.30;;;;;;;2.03;90.09;102014.51;1664625;86;21054;-74
2022/01/25 06:41:36;;;;;;;27.65;14.38;;;;;;;2.01;90.08;102005.82;1664595;86;21136;-74
2022/01/25 06:44:00;;;;;;;25.05;13.08;;;;;;;1.98;90.08;102002.89;1664323;86;21014;-75
2022/01/25 06:46:26;;;;;;;29.50;13.95;;;;;;;1.99;90.07;102007.69;1664594;84;21039;-75
2022/01/25 06:48:53;;;;;;;26.45;13.93;;;;;;;1.97;90.07;102011.70;1676092;84;21074;-74
2022/01/25 06:51:19;;;;;;;28.20;14.68;;;;;;;1.96;90.07;102015.28;1673112;84;21104;-75
2022/01/25 06:53:45;;;;;;;28.15;14.15;;;;;;;1.98;90.06;102009.92;1665488;85;21081;-74
2022/01/25 06:56:11;;;;;;;35.40;15.68;;;;;;;1.97;90.06;102009.06;1665469;86;21612;-74
2022/01/25 06:58:38;;;;;;;25.97;13.78;;;;;;;1.98;90.05;102017.36;1665945;84;21564;-75
2022/01/25 07:01:04;;;;;;;28.92;15.48;;;;;;;1.99;90.05;102023.48;1664918;85;21039;-74
2022/01/25 07:03:30;;;;;;;32.13;14.87;;;;;;;1.98;90.05;102017.81;1665840;86;21028;-74
2022/01/25 07:05:56;;;;;;;32.05;16.42;;;;;;;1.96;90.05;102026.27;1664625;84;21098;-74
2022/01/25 07:08:22;;;;;;;28.57;16.93;;;;;;;1.94;90.05;102021.52;1664622;86;20924;-74
2022/01/25 07:10:48;;;;;;;39.95;17.50;;;;;;;1.93;90.05;102027.73;1664459;86;20953;-74
2022/01/25 07:13:14;;;;;;;30.72;15.00;;;;;;;1.92;90.04;102026.02;1664238;86;21036;-74
2022/01/25 07:15:40;;;;;;;35.95;16.90;;;;;;;1.91;90.05;102022.98;1665646;85;21021;-74
2022/01/25 07:18:06;;;;;;;38.15;16.82;;;;;;;1.90;90.02;102020.81;1665200;84;21193;-74
2022/01/25 07:20:32;;;;;;;33.18;16.10;;;;;;;1.91;90.02;102020.36;1666273;85;21568;-74
2022/01/25 07:22:58;;;;;;;32.35;15.48;;;;;;;1.89;90.02;102027.48;1665633;86;21068;-74
2022/01/25 07:25:25;;;;;;;40.58;18.77;;;;;;;1.90;90.01;102023.94;1665875;85;21599;-74
2022/01/25 07:27:52;;;;;;;32.23;16.25;;;;;;;1.89;90.02;102019.59;1665768;86;21032;-75
2022/01/25 07:30:18;;;;;;;36.75;19.73;;;;;;;1.89;90.00;102015.65;1665391;86;21060;-75
2022/01/25 07:32:44;;;;;;;34.80;17.40;;;;;;;1.91;89.98;102013.78;1665046;86;21091;-75
2022/01/25 07:35:10;;;;;;;32.10;16.30;;;;;;;1.92;90.00;102016.81;1665275;85;21066;-75
2022/01/25 07:37:36;;;;;;;36.17;16.93;;;;;;;1.92;89.99;102010.23;1665865;86;21568;-75
2022/01/25 07:40:03;;;;;;;34.10;15.68;;;;;;;1.91;90.00;102014.64;1665838;85;21540;-75
2022/01/25 07:42:33;;;;;;;35.78;19.52;;;;;;;1.90;90.00;102016.05;1665566;86;21189;-75
2022/01/25 07:44:57;;;;;;;37.15;19.23;;;;;;;1.88;89.99;102012.62;1664469;85;21054;-75
2022/01/25 07:47:23;;;;;;;35.68;16.10;;;;;;;1.88;90.00;102017.88;1662610;86;21050;-75
2022/01/25 07:49:49;;;;;;;36.75;18.07;;;;;;;1.86;89.98;102014.03;1662857;86;21019;-75
2022/01/25 07:52:15;;;;;;;37.93;17.20;;;;;;;1.87;89.97;102014.85;1662813;86;21026;-75
2022/01/25 07:54:42;;;;;;;41.35;17.82;;;;;;;1.87;89.96;102017.48;1666330;85;21234;-74
2022/01/25 07:57:08;;;;;;;29.42;13.83;;;;;;;1.87;89.98;102017.48;1670205;85;21509;-74
2022/01/25 07:59:34;;;;;;;37.80;17.50;;;;;;;1.86;89.98;102019.75;1670553;85;21591;-74
2022/01/25 08:02:00;;;;;;;31.57;15.48;;;;;;;1.87;89.96;102014.85;1670512;85;21507;-74
2022/01/25 08:04:27;;;;;;;27.90;12.60;;;;;;;1.88;89.98;102014.80;1670624;85;21630;-74
2022/01/25 08:06:53;;;;;;;36.20;16.62;;;;;;;1.92;89.98;102015.49;1670357;84;21115;-75
2022/01/25 08:09:19;;;;;;;29.92;16.12;;;;;;;1.92;89.97;102019.44;1670596;85;21063;-75
2022/01/25 08:11:45;;;;;;;39.33;19.95;;;;;;;1.96;89.97;102015.73;1670779;85;21047;-75
2022/01/25 08:14:19;;;;;;;38.25;20.15;;;;;;;1.97;89.95;102013.50;1670771;85;21028;-75
2022/01/25 08:16:48;;;;;;;42.80;21.60;;;;;;;1.98;89.95;102019.13;1669597;85;21084;-75
2022/01/25 08:19:14;;;;;;;34.43;16.17;;;;;;;1.98;89.96;102023.08;1670104;85;21682;-75
2022/01/25 08:21:41;;;;;;;45.20;24.90;;;;;;;2.02;89.97;102020.69;1670514;85;21092;-75
2022/01/25 08:24:08;;;;;;;98.90;31.82;;;;;;;2.06;89.97;102019.61;1669878;85;21060;-75
2022/01/25 08:26:35;;;;;;;55.38;20.57;;;;;;;2.08;89.95;102007.22;1670615;85;21048;-75
2022/01/25 08:29:01;;;;;;;28.42;14.07;;;;;;;2.16;89.98;102007.70;1670182;85;21136;-75
2022/01/25 08:31:27;;;;;;;34.05;16.00;;;;;;;2.18;89.97;102008.46;1670632;85;21196;-75
2022/01/25 08:33:53;;;;;;;39.35;16.55;;;;;;;2.19;89.98;102004.91;1670849;85;21020;-75
2022/01/25 08:36:19;;;;;;;34.55;16.52;;;;;;;2.21;89.98;102010.11;1670381;85;21556;-75
2022/01/25 08:38:45;;;;;;;32.73;15.45;;;;;;;2.25;89.99;102002.45;1670866;85;21064;-75
2022/01/25 08:41:12;;;;;;;43.02;23.22;;;;;;;2.26;89.99;102003.67;1670490;85;21115;-75
2022/01/25 08:43:38;;;;;;;32.40;17.75;;;;;;;2.29;90.00;102006.61;1670577;85;21450;-75
2022/01/25 08:46:04;;;;;;;28.67;15.03;;;;;;;2.27;89.98;102006.70;1670179;85;20998;-75
2022/01/25 08:48:30;;;;;;;26.48;13.22;;;;;;;2.29;90.01;102011.41;1669763;84;21011;-75
2022/01/25 08:50:58;;;;;;;30.90;16.30;;;;;;;2.32;90.00;102003.35;1670925;84;21016;-74
2022/01/25 08:53:24;;;;;;;32.93;15.95;;;;;;;2.37;90.01;101998.72;1670313;84;21031;-75
2022/01/25 08:55:50;;;;;;;52.85;29.30;;;;;;;2.39;90.01;101998.16;1669751;85;21140;-75
2022/01/25 08:58:16;;;;;;;56.90;30.05;;;;;;;2.45;90.02;101991.29;1670255;85;21159;-75
2022/01/25 09:00:42;;;;;;;42.43;24.00;;;;;;;2.48;90.00;101992.91;1670905;85;21063;-74
2022/01/25 09:03:08;;;;;;;40.15;21.23;;;;;;;2.53;90.01;101983.82;1671090;84;21073;-75
2022/01/25 09:05:36;;;;;;;56.15;32.88;;;;;;;2.64;90.04;101979.81;1669974;86;21104;-74
2022/01/25 09:08:05;;;;;;;35.65;18.35;;;;;;;2.75;90.04;101981.38;1670128;85;21259;-74
2022/01/25 09:10:31;;;;;;;41.60;18.65;;;;;;;2.85;90.05;101975.55;1670002;86;21018;-75
2022/01/25 09:12:57;;;;;;;32.80;16.80;;;;;;;2.88;90.05;101973.23;1670115;84;21087;-75
2022/01/25 09:15:23;;;;;;;34.38;17.67;;;;;;;2.84;90.05;101982.23;1670428;85;21017;-75
2022/01/25 09:17:50;;;;;;;35.43;19.75;;;;;;;2.82;90.02;101986.71;1670813;85;21026;-75
2022/01/25 09:20:16;;;;;;;37.25;18.92;;;;;;;2.78;90.01;101973.34;1670864;85;21829;-75
2022/01/25 09:22:42;;;;;;;35.00;17.57;;;;;;;2.75;90.02;101965.12;1670367;84;21043;-74
2022/01/25 09:25:09;;;;;;;37.08;18.15;;;;;;;2.72;90.00;101964.42;1670630;85;21032;-74
2022/01/25 09:27:36;;;;;;;46.55;24.20;;;;;;;2.75;90.00;101961.63;1670338;85;21116;-74
2022/01/25 09:30:04;;;;;;;56.10;29.87;;;;;;;2.79;89.96;101965.80;1670134;85;20998;-75
2022/01/25 09:32:30;;;;;;;50.17;29.95;;;;;;;2.83;89.97;101964.25;1676171;84;22047;-74
2022/01/25 09:34:56;;;;;;;50.60;20.68;;;;;;;2.87;89.97;101957.03;1679579;84;20956;-74
2022/01/25 09:37:22;;;;;;;29.70;14.28;;;;;;;2.89;89.96;101952.06;1671684;84;21055;-74
2022/01/25 09:39:48;;;;;;;34.88;19.98;;;;;;;2.92;89.94;101951.06;1670378;84;21067;-74
2022/01/25 09:42:14;;;;;;;35.13;16.77;;;;;;;2.89;89.94;101946.79;1675611;84;21035;-75
2022/01/25 09:44:40;;;;;;;30.92;14.95;;;;;;;2.92;89.92;101949.75;1688791;84;21634;-74
2022/01/25 09:47:07;;;;;;;26.65;13.62;;;;;;;2.91;89.90;101944.08;1669685;84;21091;-74
2022/01/25 09:49:33;;;;;;;32.35;14.85;;;;;;;2.85;89.90;101949.20;1669004;84;21054;-74
2022/01/25 09:52:01;;;;;;;36.33;16.57;;;;;;;2.83;89.90;101948.91;1668620;84;21044;-74
2022/01/25 09:54:27;;;;;;;106.60;53.38;;;;;;;2.83;89.88;101949.77;1667514;85;21544;-73
2022/01/25 09:56:53;;;;;;;47.45;23.73;;;;;;;2.86;89.88;101954.00;1659329;85;21707;-73
2022/01/25 09:59:19;;;;;;;37.53;18.48;;;;;;;2.90;89.87;101960.81;1659409;86;21522;-74
2022/01/25 10:01:45;;;;;;;40.95;22.80;;;;;;;2.96;89.88;101965.75;1657772;86;21036;-73
2022/01/25 10:04:37;;;;;;;54.75;33.33;;;;;;;2.99;89.88;101958.53;1655749;86;21020;-74
2022/01/25 10:07:08;;;;;;;79.35;29.98;;;;;;;2.99;89.84;101962.98;1657547;86;21005;-74
2022/01/25 10:09:33;;;;;;;52.38;26.85;;;;;;;2.97;89.83;101955.14;1660997;85;21114;-74
2022/01/25 10:12:25;;;;;;;36.45;19.32;;;;;;;2.97;89.81;101952.97;1659725;86;21036;-74
2022/01/25 10:15:08;;;;;;;46.75;21.33;;;;;;;2.96;89.81;101947.30;1634042;87;21091;-74
2022/01/25 10:17:36;;;;;;;33.00;17.42;;;;;;;2.95;89.76;101945.63;1659166;85;21498;-74
2022/01/25 10:20:04;;;;;;;31.35;14.73;;;;;;;2.96;89.75;101948.62;1659417;85;21108;-74
2022/01/25 10:22:43;;;;;;;32.05;15.08;;;;;;;2.99;89.73;101957.70;1660321;85;21037;-74
2022/01/25 10:25:09;;;;;;;19.48;10.88;;;;;;;3.02;89.73;101958.85;1640148;86;21024;-74
2022/01/25 10:28:11;;;;;;;30.85;15.40;;;;;;;3.00;89.69;101958.06;1661080;86;21447;-74
2022/01/25 10:30:34;;;;;;;50.10;20.62;;;;;;;3.01;89.67;101947.92;1658144;86;21028;-74
2022/01/25 10:33:01;;;;;;;34.67;15.65;;;;;;;3.06;89.68;101948.53;1659555;86;21505;-74
2022/01/25 10:35:29;;;;;;;30.00;12.37;;;;;;;3.08;89.66;101954.55;1659727;86;21878;-74
2022/01/25 10:37:56;;;;;;;25.72;10.55;;;;;;;3.12;89.64;101945.55;1659464;86;21064;-74
2022/01/25 10:40:37;;;;;;;31.23;14.23;;;;;;;3.14;89.60;101946.30;1659736;85;21016;-74
2022/01/25 10:43:05;;;;;;;46.65;20.08;;;;;;;3.16;89.59;101948.87;1658477;86;21004;-74
2022/01/25 10:45:31;;;;;;;37.13;17.62;;;;;;;3.16;89.58;101944.45;1661359;85;21040;-74
2022/01/25 10:47:57;;;;;;;32.48;15.23;;;;;;;3.21;89.58;101942.39;1689044;85;21183;-74
2022/01/25 10:50:31;;;;;;;27.93;12.93;;;;;;;3.22;89.54;101942.78;1661782;85;21496;-74
2022/01/25 10:53:12;;;;;;;29.00;14.00;;;;;;;3.18;89.52;101929.85;1657335;86;21078;-74
2022/01/25 10:55:45;;;;;;;38.58;18.77;;;;;;;3.11;89.47;101934.61;1663270;85;21034;-74
2022/01/25 10:58:12;;;;;;;58.60;25.55;;;;;;;3.10;89.47;101934.22;1668769;86;21598;-74
2022/01/25 11:00:43;;;;;;;53.17;23.42;;;;;;;3.15;89.46;101924.29;1670790;85;21288;-74
2022/01/25 11:03:10;;;;;;;64.53;29.67;;;;;;;3.22;89.44;101928.29;1670520;85;21601;-74
2022/01/25 11:05:39;;;;;;;69.00;28.27;;;;;;;3.31;89.45;101926.44;1685111;84;21082;-74
2022/01/25 11:08:16;;;;;;;91.63;30.43;;;;;;;3.40;89.46;101926.41;1670823;85;21035;-74
2022/01/25 11:10:48;;;;;;;68.28;23.57;;;;;;;3.43;89.42;101927.08;1670140;85;21076;-74
2022/01/25 11:13:32;;;;;;;75.15;28.15;;;;;;;3.51;89.43;101925.33;1669263;85;21304;-72
2022/01/25 11:15:40;;;;;;;63.33;24.92;;;;;;;3.45;89.40;101922.56;1672724;83;21024;-72
2022/01/25 11:18:06;;;;;;;54.30;24.00;;;;;;;3.42;89.37;101930.65;1670108;85;21147;-72
2022/01/25 11:20:34;;;;;;;41.23;20.27;;;;;;;3.37;89.37;101927.44;1669928;84;21016;-74
2022/01/25 11:23:00;;;;;;;27.02;13.43;;;;;;;3.34;89.35;101926.77;1669083;86;21612;-74
2022/01/25 11:25:26;;;;;;;28.90;12.95;;;;;;;3.28;89.31;101923.98;1668815;86;21225;-74
2022/01/25 11:27:52;;;;;;;28.65;16.12;;;;;;;3.28;89.32;101913.90;1616797;86;21685;-73
2022/01/25 11:30:19;;;;;;;21.57;11.00;;;;;;;3.26;89.27;101918.42;1669382;86;21004;-73
2022/01/25 11:32:48;;;;;;;24.80;13.28;;;;;;;3.23;89.27;101918.13;1639063;85;21022;-73
2022/01/25 11:35:16;;;;;;;19.67;11.33;;;;;;;3.22;89.27;101919.06;1640550;85;21035;-73
2022/01/25 11:37:45;;;;;;;25.48;13.03;;;;;;;3.23;89.26;101917.28;1670873;85;21173;-74
2022/01/25 11:40:39;;;;;;;23.47;12.75;;;;;;;3.20;89.24;101909.05;1670885;85;21134;-74
2022/01/25 11:43:10;;;;;;;34.03;16.05;;;;;;;3.18;89.27;101892.95;1687219;84;21500;-74
2022/01/25 11:45:40;;;;;;;47.80;19.35;;;;;;;3.14;89.25;101892.27;1658665;85;21576;-74
2022/01/25 11:48:06;;;;;;;41.28;19.15;;;;;;;3.12;89.27;101891.52;1670860;85;21079;-74
2022/01/25 11:50:41;;;;;;;32.93;17.02;;;;;;;3.13;89.26;101899.78;1670761;85;21080;-74
2022/01/25 11:53:11;;;;;;;25.90;12.88;;;;;;;3.16;89.27;101899.64;1670644;85;21627;-74
2022/01/25 11:55:46;;;;;;;21.42;11.78;;;;;;;3.17;89.27;101896.05;1669056;85;21091;-74
2022/01/25 11:58:18;;;;;;;28.67;14.50;;;;;;;3.14;89.24;101892.27;1665791;86;21023;-73
2022/01/25 12:00:49;;;;;;;39.85;20.68;;;;;;;3.16;89.26;101894.37;1664760;86;21020;-73
2022/01/25 12:03:33;;;;;;;23.83;13.78;;;;;;;3.16;89.25;101890.87;1665257;85;21150;-73
2022/01/25 12:06:27;;;;;;;30.77;16.27;;;;;;;3.20;89.29;101893.23;1665088;86;21038;-74
2022/01/25 12:12:06;;;;;;;31.50;16.35;;;;;;;3.24;89.29;101886.01;1665966;86;21518;-74
2022/01/25 12:14:38;;;;;;;26.45;13.20;;;;;;;3.21;89.31;101880.45;1680644;84;21084;-74
2022/01/25 12:17:11;;;;;;;41.18;14.98;;;;;;;3.22;89.33;101876.89;1665378;86;21660;-75
2022/01/25 12:19:58;;;;;;;42.85;17.17;;;;;;;3.25;89.32;101868.80;1665724;86;21057;-74
2022/01/25 12:25:17;;;;;;;33.40;17.05;;;;;;;3.28;89.36;101873.89;1672899;84;21029;-74
2022/01/25 12:28:01;;;;;;;42.25;16.77;;;;;;;3.33;89.36;101877.13;1672055;84;21671;-74
2022/01/25 12:30:44;;;;;;;49.38;20.32;;;;;;;3.35;89.37;101876.56;1655665;86;21172;-74
2022/01/25 12:33:27;;;;;;;36.58;15.83;;;;;;;3.35;89.38;101873.07;1668845;84;21082;-74
2022/01/25 12:36:07;;;;;;;44.00;16.40;;;;;;;3.36;89.37;101862.91;1665090;86;21664;-75
2022/01/25 12:38:43;;;;;;;35.15;16.15;;;;;;;3.35;89.39;101867.80;1664232;86;21066;-74
2022/01/25 12:41:16;;;;;;;34.03;13.85;;;;;;;3.32;89.40;101862.70;1664900;86;21574;-74
2022/01/25 12:43:44;;;;;;;32.13;15.13;;;;;;;3.28;89.40;101862.50;1681379;84;21246;-74
2022/01/25 12:46:19;;;;;;;30.80;15.32;;;;;;;3.28;89.40;101863.34;1680761;84;21022;-74
2022/01/25 12:48:54;;;;;;;32.60;14.03;;;;;;;3.30;89.42;101856.69;1665274;86;21129;-74
2022/01/25 12:51:26;;;;;;;30.95;12.47;;;;;;;3.32;89.42;101855.65;1666864;84;21022;-73
2022/01/25 12:53:54;;;;;;;28.98;12.47;;;;;;;3.31;89.42;101848.67;1662851;84;21086;-74
2022/01/25 12:56:24;;;;;;;51.48;18.25;;;;;;;3.29;89.40;101839.16;1662472;85;21152;-74
2022/01/25 12:58:53;;;;;;;63.60;26.07;;;;;;;3.28;89.41;101839.63;1676909;84;21062;-73
2022/01/25 13:01:21;;;;;;;91.57;31.90;;;;;;;3.24;89.39;101838.09;1698621;84;21247;-74
2022/01/25 13:03:50;;;;;;;50.45;17.98;;;;;;;3.17;89.21;101833.25;1666194;84;47052;-72
2022/01/25 13:06:19;;;;;;;25.68;11.65;;;;;;;3.29;89.43;101849.23;1698112;84;21077;-74
2022/01/25 13:09:04;;;;;;;50.25;17.45;;;;;;;3.27;89.43;101841.87;1698227;84;21977;-74
2022/01/25 13:16:52;;;;;;;66.75;25.23;;;;;;;3.28;89.43;101834.35;1659564;86;21083;-73
2022/01/25 13:19:32;;;;;;;;;;;;;;;3.27;89.42;101828.69;1662609;86;21132;-74